River Grove, Illinois
Current Conditions -  °F | °C
As of 6:51 PM on Tuesday 21 Oct 2014 (Local Time) from KORD Reporting Station
Broken Clouds Broken Clouds  
Wind Chill: 43°   Ceiling: 2600
Heat Index: 48°   Visibility: 10mi
Dew Point: 37°   Wind: 13mph
Humidity: 66%   Direction: 30°NNE
Pressure: 30.22"   Gusts: NA
Location:  41.93°N, 87.83°W
Report Text: KORD 212351Z 03011KT 10SM BKN026 09/03 A3022 RMK AO2 SLP237 T00890028 10111 20089 53011
Loading
Personal Weather Stations






























Interactive Weather Map
Tropical Storm Tracking
New forecast layout! Learn more

10-Day Weather Forecast

Advertisements
Track Severe Weather on mobile